createdAt,value
2019-02-25T00:02:25.252Z,13.20
2019-02-25T00:04:55.002Z,12.43
2019-02-25T00:07:24.070Z,12.80
2019-02-25T00:09:53.056Z,13.00
2019-02-25T00:12:22.213Z,13.10
2019-02-25T00:14:51.248Z,12.67
2019-02-25T00:17:20.341Z,12.27
2019-02-25T00:19:49.430Z,12.43
2019-02-25T00:22:18.439Z,12.50
2019-02-25T00:24:47.988Z,12.27
2019-02-25T00:27:17.325Z,12.83
2019-02-25T00:29:46.493Z,13.17
2019-02-25T00:32:15.551Z,12.87
2019-02-25T00:34:44.821Z,12.57
2019-02-25T00:37:13.821Z,13.17
2019-02-25T00:39:42.819Z,13.37
2019-02-25T00:42:12.041Z,13.07
2019-02-25T00:44:41.082Z,13.00
2019-02-25T00:47:10.155Z,12.93
2019-02-25T00:49:39.356Z,13.23
2019-02-25T00:52:08.406Z,12.63
2019-02-25T00:54:37.481Z,13.03
2019-02-25T00:57:08.847Z,13.00
2019-02-25T00:59:37.519Z,13.23
2019-02-25T01:02:06.562Z,13.43
2019-02-25T01:04:35.920Z,13.50
2019-02-25T01:07:05.242Z,13.13
2019-02-25T01:09:34.311Z,12.83
2019-02-25T01:12:03.612Z,12.03
2019-02-25T01:14:32.744Z,12.77
2019-02-25T01:17:01.770Z,13.07
2019-02-25T01:19:31.031Z,13.67
2019-02-25T01:22:00.179Z,13.10
2019-02-25T01:24:29.262Z,13.20
2019-02-25T01:26:58.600Z,12.90
2019-02-25T01:29:27.748Z,13.13
2019-02-25T01:31:56.830Z,13.30
2019-02-25T01:34:26.098Z,13.43
2019-02-25T01:36:55.340Z,12.77
2019-02-25T01:39:24.424Z,13.13
2019-02-25T01:41:53.891Z,12.87
2019-02-25T01:44:23.008Z,13.13
2019-02-25T01:46:51.998Z,12.90
2019-02-25T01:49:21.424Z,13.00
2019-02-25T01:51:50.463Z,12.80
2019-02-25T01:54:21.271Z,13.03
2019-02-25T01:56:50.404Z,13.27
2019-02-25T01:59:19.511Z,12.83
2019-02-25T02:01:48.576Z,13.00
2019-02-25T02:04:17.894Z,13.10
2019-02-25T02:06:46.963Z,12.83
2019-02-25T02:09:16.025Z,13.03
2019-02-25T02:11:45.280Z,12.47
2019-02-25T02:14:14.455Z,12.70
2019-02-25T02:16:43.549Z,12.30
2019-02-25T02:19:12.693Z,12.73
2019-02-25T02:21:41.687Z,12.23
2019-02-25T02:24:10.623Z,10.93
2019-02-25T02:26:39.993Z,10.23
2019-02-25T02:29:09.330Z,9.60
2019-02-25T02:31:38.358Z,10.40
2019-02-25T02:34:07.669Z,9.67
2019-02-25T02:36:36.678Z,10.17
2019-02-25T02:39:07.312Z,9.37
2019-02-25T02:42:13.415Z,10.30
2019-02-25T02:44:42.858Z,10.33
2019-02-25T02:47:34.447Z,10.57
2019-02-25T02:50:03.469Z,11.03
2019-02-25T02:52:32.551Z,11.80
2019-02-25T02:55:01.800Z,12.17
2019-02-25T02:57:30.959Z,11.73
2019-02-25T03:00:00.051Z,12.00
2019-02-25T03:02:29.325Z,11.87
2019-02-25T03:04:58.574Z,12.53
2019-02-25T03:07:27.557Z,11.10
2019-02-25T03:09:58.786Z,12.00
2019-02-25T03:12:27.489Z,12.27
2019-02-25T03:14:56.486Z,12.27
2019-02-25T03:17:25.764Z,11.53
2019-02-25T03:19:54.746Z,11.17
2019-02-25T03:22:23.832Z,12.27
2019-02-25T03:24:53.090Z,11.50
2019-02-25T03:27:22.162Z,11.27
2019-02-25T03:29:51.283Z,12.37
2019-02-25T03:32:20.537Z,12.00
2019-02-25T03:34:49.543Z,11.20
2019-02-25T03:37:18.531Z,11.77
2019-02-25T03:39:47.968Z,11.93
2019-02-25T03:42:17.001Z,12.30
2019-02-25T03:44:46.095Z,11.40
2019-02-25T03:47:15.412Z,11.47
2019-02-25T03:49:44.490Z,11.37
2019-02-25T03:52:13.388Z,12.23
2019-02-25T03:54:42.705Z,10.73
2019-02-25T03:57:11.754Z,12.07
2019-02-25T03:59:40.827Z,11.17
2019-02-25T04:02:10.036Z,10.90
2019-02-25T04:04:39.118Z,10.60
2019-02-25T04:07:08.186Z,10.20
2019-02-25T04:09:37.383Z,10.17
2019-02-25T04:12:06.453Z,9.23
2019-02-25T04:14:35.529Z,9.50
2019-02-25T04:17:04.877Z,9.67
2019-02-25T04:19:33.859Z,8.83
2019-02-25T04:22:02.911Z,9.37
2019-02-25T04:24:32.146Z,9.67
2019-02-25T04:27:01.292Z,9.87
2019-02-25T04:29:30.296Z,9.33
2019-02-25T04:31:59.583Z,10.13
2019-02-25T04:34:28.587Z,10.27
2019-02-25T04:36:57.644Z,9.27
2019-02-25T04:39:27.028Z,9.57
2019-02-25T04:41:56.117Z,9.23
2019-02-25T04:44:25.182Z,9.70
2019-02-25T04:46:54.519Z,9.77
2019-02-25T04:49:23.509Z,10.03
2019-02-25T04:51:52.520Z,9.03
2019-02-25T04:54:21.813Z,9.70
2019-02-25T04:56:50.813Z,9.93
2019-02-25T04:59:19.736Z,10.47
2019-02-25T05:01:49.713Z,9.83
2019-02-25T05:04:18.643Z,10.07
2019-02-25T05:06:47.575Z,11.33
2019-02-25T05:09:16.770Z,10.17
2019-02-25T05:11:45.931Z,11.30
2019-02-25T05:14:14.924Z,11.00
2019-02-25T05:16:44.191Z,10.77
2019-02-25T05:21:35.123Z,10.23
2019-02-25T05:24:04.516Z,11.37
2019-02-25T05:26:33.580Z,10.53
2019-02-25T05:29:02.554Z,10.40
2019-02-25T05:31:31.882Z,11.37
2019-02-25T05:34:00.954Z,10.47
2019-02-25T05:36:29.893Z,10.37
2019-02-25T05:38:58.992Z,10.33
2019-02-25T05:41:27.969Z,11.20
2019-02-25T05:43:57.045Z,9.90
2019-02-25T05:46:26.358Z,10.83
2019-02-25T05:48:55.372Z,10.43
2019-02-25T05:51:24.431Z,10.77
2019-02-25T05:53:53.747Z,9.63
2019-02-25T05:56:22.932Z,9.53
2019-02-25T05:58:51.953Z,9.47
2019-02-25T06:01:22.167Z,9.90
2019-02-25T06:03:51.289Z,10.07
2019-02-25T06:06:20.370Z,9.87
2019-02-25T06:08:49.661Z,9.83
2019-02-25T06:11:18.741Z,9.83
2019-02-25T06:13:47.911Z,9.97
2019-02-25T06:16:17.354Z,9.50
2019-02-25T06:18:46.442Z,10.20
2019-02-25T06:21:15.544Z,10.33
2019-02-25T06:23:44.848Z,9.83
2019-02-25T06:26:14.082Z,10.10
2019-02-25T06:28:44.719Z,10.00
2019-02-25T06:31:15.533Z,9.73
2019-02-25T06:33:44.696Z,9.23
2019-02-25T06:36:14.070Z,10.07
2019-02-25T06:38:43.480Z,9.83
2019-02-25T06:41:14.403Z,10.57
2019-02-25T06:43:43.394Z,11.23
2019-02-25T06:46:12.898Z,9.93
2019-02-25T06:48:42.199Z,9.87
2019-02-25T06:51:11.265Z,9.73
2019-02-25T06:53:40.632Z,11.07
2019-02-25T06:56:09.715Z,10.00
2019-02-25T06:58:38.786Z,9.97
2019-02-25T07:01:07.951Z,9.97
2019-02-25T07:03:37.046Z,9.27
2019-02-25T07:06:17.634Z,10.20
2019-02-25T07:09:00.242Z,9.27
2019-02-25T07:11:38.502Z,10.03
2019-02-25T07:14:20.386Z,10.20
2019-02-25T07:17:07.616Z,10.10
2019-02-25T07:19:58.846Z,10.30
2019-02-25T07:22:36.734Z,10.50
2019-02-25T07:25:11.164Z,10.00
2019-02-25T07:28:04.931Z,10.90
2019-02-25T07:30:59.097Z,10.77
2019-02-25T07:33:44.080Z,10.93
2019-02-25T07:36:32.233Z,9.80
2019-02-25T07:39:09.769Z,10.67
2019-02-25T07:42:09.975Z,10.47
2019-02-25T07:44:47.731Z,10.70
2019-02-25T07:47:27.621Z,10.43
2019-02-25T07:50:09.069Z,11.10
2019-02-25T07:52:46.194Z,11.90
2019-02-25T07:55:30.921Z,10.27
2019-02-25T07:58:10.777Z,11.07
2019-02-25T08:00:57.369Z,10.60
2019-02-25T08:03:44.819Z,11.10
2019-02-25T08:06:36.419Z,10.50
2019-02-25T08:09:25.691Z,10.10
2019-02-25T08:12:17.099Z,9.77
2019-02-25T08:15:03.987Z,11.17
2019-02-25T08:17:52.156Z,10.97
2019-02-25T08:20:40.214Z,9.70
2019-02-25T08:23:19.223Z,11.03
2019-02-25T08:26:12.709Z,11.40
2019-02-25T08:29:00.042Z,10.27
2019-02-25T08:31:46.984Z,11.60
2019-02-25T08:34:46.791Z,11.30
2019-02-25T08:37:52.482Z,11.70
2019-02-25T08:41:06.280Z,11.07
2019-02-25T08:43:45.690Z,10.40
2019-02-25T08:46:20.711Z,10.30
2019-02-25T08:48:54.114Z,10.50
2019-02-25T08:51:23.419Z,11.10
2019-02-25T08:53:52.476Z,10.20
2019-02-25T08:56:21.650Z,10.77
2019-02-25T08:58:51.002Z,10.40
2019-02-25T09:01:21.194Z,11.13
2019-02-25T09:03:50.353Z,10.83
2019-02-25T09:06:20.030Z,10.13
2019-02-25T09:08:49.110Z,10.87
2019-02-25T09:11:18.184Z,10.43
2019-02-25T09:13:47.423Z,10.70
2019-02-25T09:16:16.538Z,11.03
2019-02-25T09:18:45.652Z,10.87
2019-02-25T09:21:14.944Z,10.77
2019-02-25T09:23:43.948Z,10.87
2019-02-25T09:26:12.998Z,10.10
2019-02-25T09:28:42.419Z,12.00
2019-02-25T09:31:11.404Z,11.63
2019-02-25T09:33:40.382Z,10.90
2019-02-25T09:36:09.827Z,11.73
2019-02-25T09:38:38.904Z,10.80
2019-02-25T09:41:07.999Z,10.30
2019-02-25T09:43:37.180Z,10.13
2019-02-25T09:46:06.247Z,11.47
2019-02-25T09:48:35.429Z,12.77
2019-02-25T09:51:04.771Z,10.70
2019-02-25T09:53:33.951Z,10.10
2019-02-25T09:56:03.113Z,10.80
2019-02-25T09:58:32.382Z,10.43
2019-02-25T10:01:01.553Z,10.77
2019-02-25T10:03:30.716Z,10.13
2019-02-25T10:06:00.122Z,10.17
2019-02-25T10:08:29.177Z,9.83
2019-02-25T10:10:58.154Z,9.73
2019-02-25T10:13:27.553Z,9.63
2019-02-25T10:15:56.566Z,9.30
2019-02-25T10:18:25.634Z,9.03
2019-02-25T10:20:54.871Z,7.47
2019-02-25T10:23:23.989Z,7.37
2019-02-25T10:25:52.960Z,6.03
2019-02-25T10:28:22.125Z,5.27
2019-02-25T10:30:53.054Z,6.23
2019-02-25T10:33:22.050Z,5.83
2019-02-25T10:35:52.113Z,6.63
2019-02-25T10:38:21.651Z,7.20
2019-02-25T10:40:52.171Z,7.07
2019-02-25T10:43:21.814Z,7.47
2019-02-25T10:45:50.882Z,7.30
2019-02-25T10:48:21.506Z,7.03
2019-02-25T10:50:55.899Z,7.10
2019-02-25T10:53:22.102Z,7.30
2019-02-25T10:56:16.542Z,7.20
2019-02-25T10:58:45.218Z,6.90
2019-02-25T11:01:17.601Z,6.97
2019-02-25T11:03:45.609Z,6.43
2019-02-25T11:06:16.030Z,6.47
2019-02-25T11:08:49.458Z,5.73
2019-02-25T11:11:23.245Z,5.70
2019-02-25T11:13:52.538Z,5.40
2019-02-25T11:16:21.715Z,5.97
2019-02-25T11:18:52.788Z,5.73
2019-02-25T11:21:21.869Z,6.30
2019-02-25T11:23:53.139Z,6.03
2019-02-25T11:26:23.618Z,5.77
2019-02-25T11:28:52.665Z,6.73
2019-02-25T11:31:24.507Z,5.50
2019-02-25T11:33:52.549Z,5.13
2019-02-25T11:36:22.073Z,4.97
2019-02-25T11:38:51.219Z,5.20
2019-02-25T11:41:20.311Z,4.80
2019-02-25T11:43:50.984Z,4.90
2019-02-25T11:46:20.325Z,4.63
2019-02-25T11:48:49.449Z,4.60
2019-02-25T11:51:18.802Z,4.20
2019-02-25T11:53:47.962Z,4.67
2019-02-25T11:56:16.968Z,4.07
2019-02-25T11:58:46.299Z,4.07
2019-02-25T12:01:15.307Z,4.50
2019-02-25T12:03:44.372Z,4.30
2019-02-25T12:06:13.560Z,4.27
2019-02-25T12:08:42.709Z,4.23
2019-02-25T12:11:11.793Z,3.87
2019-02-25T12:13:41.075Z,4.53
2019-02-25T12:16:10.157Z,4.30
2019-02-25T12:18:39.323Z,4.30
2019-02-25T12:21:08.655Z,4.47
2019-02-25T12:23:37.583Z,4.53
2019-02-25T12:26:06.728Z,4.77
2019-02-25T12:28:36.148Z,3.80
2019-02-25T12:31:05.214Z,3.90
2019-02-25T12:33:34.297Z,4.03
2019-02-25T12:36:03.540Z,3.80
2019-02-25T12:38:32.560Z,3.30
2019-02-25T12:41:01.694Z,4.10
2019-02-25T12:43:31.028Z,3.37
2019-02-25T12:46:00.072Z,3.23
2019-02-25T12:48:29.151Z,3.70
2019-02-25T12:50:58.422Z,3.87
2019-02-25T12:53:27.493Z,3.10
2019-02-25T12:55:56.661Z,3.40
2019-02-25T12:58:25.907Z,3.30
2019-02-25T13:00:54.982Z,3.57
2019-02-25T13:03:24.066Z,3.43
2019-02-25T13:05:53.395Z,3.43
2019-02-25T13:08:22.506Z,3.77
2019-02-25T13:10:51.534Z,3.47
2019-02-25T13:13:20.880Z,3.17
2019-02-25T13:15:49.995Z,3.27
2019-02-25T13:18:19.098Z,3.47
2019-02-25T13:20:48.374Z,3.10
2019-02-25T13:23:17.444Z,3.20
2019-02-25T13:25:46.524Z,3.57
2019-02-25T13:28:15.657Z,3.70
2019-02-25T13:30:44.802Z,3.67
2019-02-25T13:33:13.941Z,3.80
2019-02-25T13:35:43.159Z,3.93
2019-02-25T13:38:12.291Z,3.87
2019-02-25T13:40:41.381Z,3.73
2019-02-25T13:43:10.675Z,4.20
2019-02-25T13:45:39.956Z,4.50
2019-02-25T13:48:09.136Z,4.60
2019-02-25T13:50:38.362Z,4.30
2019-02-25T13:53:07.531Z,4.10
2019-02-25T13:55:36.665Z,4.30
2019-02-25T13:58:05.886Z,4.60
2019-02-25T14:00:35.219Z,4.30
2019-02-25T14:03:04.505Z,4.30
2019-02-25T14:05:33.738Z,4.83
2019-02-25T14:08:02.989Z,4.87
2019-02-25T14:10:32.147Z,4.57
2019-02-25T14:13:02.036Z,4.33
2019-02-25T14:15:31.167Z,4.10
2019-02-25T14:18:00.692Z,4.50
2019-02-25T14:20:30.049Z,4.10
2019-02-25T14:23:00.620Z,5.70
2019-02-25T14:25:29.971Z,4.50
2019-02-25T14:27:59.699Z,4.90
2019-02-25T14:30:32.705Z,4.50
2019-02-25T14:33:00.865Z,4.17
2019-02-25T14:35:29.964Z,4.57
2019-02-25T14:38:04.228Z,6.27
2019-02-25T14:40:32.602Z,5.83
2019-02-25T14:43:04.108Z,6.60
2019-02-25T14:45:34.490Z,5.60
2019-02-25T14:48:05.678Z,5.33
2019-02-25T14:50:34.695Z,6.13
2019-02-25T14:53:06.103Z,5.43
2019-02-25T14:55:34.978Z,5.23
2019-02-25T14:58:06.784Z,5.83
2019-02-25T15:00:37.836Z,5.67
2019-02-25T15:03:06.269Z,5.37
2019-02-25T15:05:35.404Z,5.83
2019-02-25T15:08:04.569Z,5.57
2019-02-25T15:10:35.849Z,5.70
2019-02-25T15:13:06.673Z,6.50
2019-02-25T15:15:37.066Z,7.53
2019-02-25T15:18:06.702Z,6.73
2019-02-25T15:20:36.058Z,5.60
2019-02-25T15:23:07.391Z,5.70
2019-02-25T15:25:40.404Z,6.10
2019-02-25T15:28:11.396Z,5.23
2019-02-25T15:30:38.744Z,5.87
2019-02-25T15:33:08.135Z,5.90
2019-02-25T15:35:39.292Z,5.20
2019-02-25T15:38:08.395Z,5.57
2019-02-25T15:40:37.636Z,5.33
2019-02-25T15:43:12.600Z,5.20
2019-02-25T15:45:42.493Z,4.57
2019-02-25T15:48:20.099Z,5.00
2019-02-25T15:50:53.606Z,5.20
2019-02-25T15:53:24.013Z,4.77
2019-02-25T15:55:53.152Z,5.27
2019-02-25T15:58:25.479Z,5.07
2019-02-25T16:00:54.663Z,5.10
2019-02-25T16:03:23.992Z,5.00
2019-02-25T16:05:56.871Z,5.63
2019-02-25T16:08:24.338Z,7.77
2019-02-25T16:10:55.763Z,5.90
2019-02-25T16:13:26.683Z,5.60
2019-02-25T16:15:56.108Z,5.10
2019-02-25T16:18:27.549Z,4.77
2019-02-25T16:20:59.757Z,4.07
2019-02-25T16:23:31.641Z,4.03
2019-02-25T16:25:59.943Z,4.90
2019-02-25T16:28:30.786Z,5.70
2019-02-25T16:31:00.000Z,6.00
2019-02-25T16:33:30.797Z,6.53
2019-02-25T16:36:01.275Z,6.23
2019-02-25T16:38:31.980Z,7.60
2019-02-25T16:41:03.678Z,6.63
2019-02-25T16:43:33.297Z,6.10
2019-02-25T16:46:06.083Z,6.63
2019-02-25T16:48:33.202Z,9.53
2019-02-25T16:51:03.219Z,9.10
2019-02-25T16:53:36.935Z,5.70
2019-02-25T16:56:05.717Z,5.20
2019-02-25T16:58:36.419Z,5.03
2019-02-25T17:01:08.035Z,4.90
2019-02-25T17:03:39.208Z,5.00
2019-02-25T17:06:09.173Z,4.97
2019-02-25T17:08:39.351Z,4.97
2019-02-25T17:11:08.519Z,5.00
2019-02-25T17:13:39.727Z,5.93
2019-02-25T17:16:17.845Z,5.50
2019-02-25T17:18:40.371Z,5.40
2019-02-25T17:21:10.227Z,5.30
2019-02-25T17:23:39.390Z,5.13
2019-02-25T17:26:10.569Z,5.30
2019-02-25T17:28:40.677Z,5.37
2019-02-25T17:31:11.534Z,6.50
2019-02-25T17:33:40.827Z,7.50
2019-02-25T17:36:12.425Z,7.77
2019-02-25T17:38:43.676Z,7.90
2019-02-25T17:41:13.667Z,7.33
2019-02-25T17:43:43.115Z,8.23
2019-02-25T17:46:14.433Z,11.50
2019-02-25T17:48:44.368Z,11.93
2019-02-25T17:51:16.221Z,11.60
2019-02-25T17:53:46.014Z,14.43
2019-02-25T17:56:17.907Z,17.07
2019-02-25T17:58:47.173Z,23.37
2019-02-25T18:01:17.382Z,29.23
2019-02-25T18:03:48.214Z,28.60
2019-02-25T18:06:17.723Z,30.23
2019-02-25T18:08:47.224Z,23.57
2019-02-25T18:11:18.394Z,22.67
2019-02-25T18:13:48.951Z,19.73
2019-02-25T18:16:19.019Z,16.73
2019-02-25T18:18:50.681Z,16.33
2019-02-25T18:21:19.704Z,15.97
2019-02-25T18:23:49.347Z,13.70
2019-02-25T18:26:19.707Z,10.57
2019-02-25T18:28:50.313Z,11.77
2019-02-25T18:31:21.431Z,11.53
2019-02-25T18:33:52.740Z,18.20
2019-02-25T18:36:24.519Z,19.87
2019-02-25T18:38:54.865Z,16.63
2019-02-25T18:41:25.423Z,17.07
2019-02-25T18:43:55.177Z,15.00
2019-02-25T18:46:30.046Z,12.77
2019-02-25T18:48:59.730Z,11.63
2019-02-25T18:51:30.554Z,10.17
2019-02-25T18:54:01.932Z,9.27
2019-02-25T18:56:35.880Z,9.40
2019-02-25T18:59:09.602Z,9.77
2019-02-25T19:01:39.009Z,9.30
2019-02-25T19:04:13.240Z,9.53
2019-02-25T19:06:43.566Z,9.73
2019-02-25T19:09:23.190Z,8.90
2019-02-25T19:11:54.030Z,8.93
2019-02-25T19:14:26.349Z,7.97
2019-02-25T19:16:57.607Z,8.90
2019-02-25T19:19:27.048Z,8.57
2019-02-25T19:22:00.320Z,9.20
2019-02-25T19:24:33.685Z,8.60
2019-02-25T19:27:03.926Z,9.30
2019-02-25T19:29:33.679Z,8.60
2019-02-25T19:32:03.362Z,8.77
2019-02-25T19:34:32.578Z,8.27
2019-02-25T19:37:02.851Z,8.07
2019-02-25T19:39:33.616Z,8.00
2019-02-25T19:42:04.086Z,7.57
2019-02-25T19:44:34.689Z,8.53
2019-02-25T19:47:04.889Z,7.70
2019-02-25T19:49:36.589Z,7.50
2019-02-25T19:52:05.786Z,7.53
2019-02-25T19:54:38.266Z,7.30
2019-02-25T19:57:07.081Z,7.93
2019-02-25T19:59:36.153Z,8.47
2019-02-25T20:02:08.089Z,7.50
2019-02-25T20:04:37.728Z,8.60
2019-02-25T20:07:08.066Z,7.47
2019-02-25T20:09:40.334Z,7.43
2019-02-25T20:12:08.235Z,7.80
2019-02-25T20:14:37.439Z,7.60
2019-02-25T20:17:06.902Z,8.23
2019-02-25T20:19:36.076Z,8.30
2019-02-25T20:22:05.262Z,7.80
2019-02-25T20:24:34.546Z,8.00
2019-02-25T20:27:05.212Z,8.27
2019-02-25T20:29:36.035Z,8.23
2019-02-25T20:32:06.349Z,8.67
2019-02-25T20:34:35.366Z,7.77
2019-02-25T20:37:04.615Z,8.67
2019-02-25T20:39:35.822Z,8.17
2019-02-25T20:42:04.790Z,7.87
2019-02-25T20:44:34.892Z,8.60
2019-02-25T20:47:04.433Z,8.30
2019-02-25T20:49:33.552Z,8.23
2019-02-25T20:52:02.719Z,8.63
2019-02-25T20:54:32.107Z,9.00
2019-02-25T20:57:01.443Z,8.67
2019-02-25T20:59:32.553Z,8.37
2019-02-25T21:02:02.151Z,7.90
2019-02-25T21:04:31.153Z,8.90
2019-02-25T21:07:02.062Z,9.60
2019-02-25T21:09:33.223Z,8.67
2019-02-25T21:12:02.147Z,8.57
2019-02-25T21:14:33.245Z,9.10
2019-02-25T21:17:03.142Z,11.50
2019-02-25T21:19:33.401Z,10.27
2019-02-25T21:22:04.514Z,10.20
2019-02-25T21:24:35.410Z,9.63
2019-02-25T21:27:06.393Z,10.23
2019-02-25T21:29:38.346Z,10.00
2019-02-25T21:32:07.208Z,9.40
2019-02-25T21:34:36.345Z,9.73
2019-02-25T21:37:05.425Z,10.97
2019-02-25T21:39:36.529Z,9.87
2019-02-25T21:42:06.347Z,10.60
2019-02-25T21:44:37.789Z,11.13
2019-02-25T21:47:07.570Z,11.07
2019-02-25T21:49:38.323Z,10.87
2019-02-25T21:52:08.484Z,10.20
2019-02-25T21:54:38.634Z,9.20
2019-02-25T21:57:09.613Z,9.87
2019-02-25T21:59:41.053Z,9.07
2019-02-25T22:02:11.722Z,10.10
2019-02-25T22:04:43.046Z,8.80
2019-02-25T22:07:11.704Z,9.03
2019-02-25T22:09:41.907Z,9.97
2019-02-25T22:12:11.555Z,9.53
2019-02-25T22:14:41.222Z,10.20
2019-02-25T22:17:15.074Z,10.27
2019-02-25T22:19:45.867Z,9.37
2019-02-25T22:22:15.135Z,9.77
2019-02-25T22:24:44.263Z,9.87
2019-02-25T22:27:15.761Z,9.50
2019-02-25T22:29:45.222Z,9.23
2019-02-25T22:32:14.451Z,9.10
2019-02-25T22:34:43.827Z,10.37
2019-02-25T22:37:16.805Z,9.80
2019-02-25T22:39:43.968Z,10.10
2019-02-25T22:42:14.805Z,10.07
2019-02-25T22:44:45.143Z,9.20
2019-02-25T22:47:16.134Z,10.43
2019-02-25T22:49:45.774Z,9.63
2019-02-25T22:52:14.899Z,9.50
2019-02-25T22:54:45.734Z,9.83
2019-02-25T22:57:16.722Z,9.23
2019-02-25T22:59:45.715Z,9.87
2019-02-25T23:02:18.061Z,10.33
2019-02-25T23:04:47.742Z,10.00
2019-02-25T23:07:19.605Z,10.33
2019-02-25T23:09:50.034Z,10.13
2019-02-25T23:12:19.685Z,10.90
2019-02-25T23:14:50.626Z,10.87
2019-02-25T23:17:19.714Z,10.47
2019-02-25T23:19:48.825Z,10.43
2019-02-25T23:22:18.246Z,10.57
2019-02-25T23:24:47.552Z,10.93
2019-02-25T23:27:16.623Z,10.33
2019-02-25T23:29:47.776Z,10.70
2019-02-25T23:32:17.475Z,10.50
2019-02-25T23:34:49.636Z,10.37
2019-02-25T23:37:19.803Z,10.13
2019-02-25T23:39:48.987Z,10.90
2019-02-25T23:42:18.153Z,10.90
2019-02-25T23:44:47.314Z,9.83
2019-02-25T23:47:16.677Z,11.07
2019-02-25T23:49:46.300Z,10.83
2019-02-25T23:52:16.540Z,10.80
2019-02-25T23:54:47.826Z,11.30
2019-02-25T23:57:17.300Z,10.57
2019-02-25T23:59:48.904Z,10.60
